地図

経路データ

SID SEASON NUMBER BASIN SUBBASIN NAME ISO_TIME NATURE LAT LON WMO_WIND WMO_PRES WMO_AGENCY TRACK_TYPE DIST2LAND LANDFALL IFLAG USA_AGENCY USA_ATCF_ID USA_LAT USA_LON USA_RECORD USA_STATUS USA_WIND USA_PRES USA_SSHS USA_R34_NE USA_R34_SE USA_R34_SW USA_R34_NW USA_R50_NE USA_R50_SE USA_R50_SW USA_R50_NW USA_R64_NE USA_R64_SE USA_R64_SW USA_R64_NW USA_POCI USA_ROCI USA_RMW USA_EYE TOKYO_LAT TOKYO_LON TOKYO_GRADE TOKYO_WIND TOKYO_PRES TOKYO_R50_DIR TOKYO_R50_LONG TOKYO_R50_SHORT TOKYO_R30_DIR TOKYO_R30_LONG TOKYO_R30_SHORT TOKYO_LAND CMA_LAT CMA_LON CMA_CAT CMA_WIND CMA_PRES HKO_LAT HKO_LON HKO_CAT HKO_WIND HKO_PRES NEWDELHI_LAT NEWDELHI_LON NEWDELHI_GRADE NEWDELHI_WIND NEWDELHI_PRES NEWDELHI_CI NEWDELHI_DP NEWDELHI_POCI REUNION_LAT REUNION_LON REUNION_TYPE REUNION_WIND REUNION_PRES REUNION_TNUM REUNION_CI REUNION_RMW REUNION_R34_NE REUNION_R34_SE REUNION_R34_SW REUNION_R34_NW REUNION_R50_NE REUNION_R50_SE REUNION_R50_SW REUNION_R50_NW REUNION_R64_NE REUNION_R64_SE REUNION_R64_SW REUNION_R64_NW BOM_LAT BOM_LON BOM_TYPE BOM_WIND BOM_PRES BOM_TNUM BOM_CI BOM_RMW BOM_R34_NE BOM_R34_SE BOM_R34_SW BOM_R34_NW BOM_R50_NE BOM_R50_SE BOM_R50_SW BOM_R50_NW BOM_R64_NE BOM_R64_SE BOM_R64_SW BOM_R64_NW BOM_ROCI BOM_POCI BOM_EYE BOM_POS_METHOD BOM_PRES_METHOD NADI_LAT NADI_LON NADI_CAT NADI_WIND NADI_PRES WELLINGTON_LAT WELLINGTON_LON WELLINGTON_WIND WELLINGTON_PRES DS824_LAT DS824_LON DS824_STAGE DS824_WIND DS824_PRES TD9636_LAT TD9636_LON TD9636_STAGE TD9636_WIND TD9636_PRES TD9635_LAT TD9635_LON TD9635_WIND TD9635_PRES TD9635_ROCI NEUMANN_LAT NEUMANN_LON NEUMANN_CLASS NEUMANN_WIND NEUMANN_PRES MLC_LAT MLC_LON MLC_CLASS MLC_WIND MLC_PRES USA_GUST BOM_GUST BOM_GUST_PER REUNION_GUST REUNION_GUST_PER USA_SEAHGT USA_SEARAD_NE USA_SEARAD_SE USA_SEARAD_SW USA_SEARAD_NW STORM_SPEED STORM_DIR
1936263N19300 1936 51 NA NA NOT_NAMED 1936-09-18 18:00:00 TS 19.0000 -59.7000 30 hurdat_atl main 625 565 O_____________ hurdat_atl AL151936 19.0000 -59.7000 TD 30 -1 13 292
1936263N19300 1936 51 NA NA NOT_NAMED 1936-09-18 21:00:00 TS 19.2505 -60.3596 main 556 499 P_____________ AL151936 19.2505 -60.3596 TD 32 -1 13 292
1936263N19300 1936 51 NA NA NOT_NAMED 1936-09-19 00:00:00 TS 19.5000 -61.0000 35 hurdat_atl main 499 444 O_____________ hurdat_atl AL151936 19.5000 -61.0000 TS 35 0 13 293
1936263N19300 1936 51 NA NA NOT_NAMED 1936-09-19 03:00:00 TS 19.7497 -61.6077 main 444 399 P_____________ AL151936 19.7497 -61.6077 TS 37 0 12 294
1936263N19300 1936 51 NA NA NOT_NAMED 1936-09-19 06:00:00 TS 20.0000 -62.2000 40 hurdat_atl main 399 356 O_____________ hurdat_atl AL151936 20.0000 -62.2000 TS 40 0 12 294
1936263N19300 1936 51 NA NA NOT_NAMED 1936-09-19 09:00:00 TS 20.2424 -62.8077 main 356 328 P_____________ AL151936 20.2424 -62.8077 TS 42 0 12 294
1936263N19300 1936 51 NA NA NOT_NAMED 1936-09-19 12:00:00 TS 20.5000 -63.4000 45 hurdat_atl main 329 312 O_____________ hurdat_atl AL151936 20.5000 -63.4000 TS 45 0 12 297
1936263N19300 1936 51 NA NA NOT_NAMED 1936-09-19 15:00:00 TS 20.7848 -63.9578 main 316 315 P_____________ AL151936 20.7848 -63.9578 TS 45 0 12 300
1936263N19300 1936 51 NA NA NOT_NAMED 1936-09-19 18:00:00 TS 21.1000 -64.5000 45 hurdat_atl main 323 319 O_____________ hurdat_atl AL151936 21.1000 -64.5000 TS 45 0 12 303
1936263N19300 1936 51 NA NA NOT_NAMED 1936-09-19 21:00:00 TS 21.4423 -65.0502 main 339 339 P_____________ AL151936 21.4423 -65.0502 TS 47 0 12 304
1936263N19300 1936 51 NA NA NOT_NAMED 1936-09-20 00:00:00 TS 21.8000 -65.6000 50 hurdat_atl main 380 380 O_____________ hurdat_atl AL151936 21.8000 -65.6000 TS 50 0 12 304
1936263N19300 1936 51 NA NA NOT_NAMED 1936-09-20 03:00:00 TS 22.1423 -66.1504 main 413 413 P_____________ AL151936 22.1423 -66.1504 TS 55 0 12 304
1936263N19300 1936 51 NA NA NOT_NAMED 1936-09-20 06:00:00 TS 22.5000 -66.7000 60 hurdat_atl main 448 442 O_____________ hurdat_atl AL151936 22.5000 -66.7000 TS 60 0 13 306
1936263N19300 1936 51 NA NA NOT_NAMED 1936-09-20 09:00:00 TS 22.8926 -67.2800 main 452 452 P_____________ AL151936 22.8926 -67.2800 TS 62 0 13 308
1936263N19300 1936 51 NA NA NOT_NAMED 1936-09-20 12:00:00 TS 23.3000 -67.8000 65 hurdat_atl main 472 467 O_____________ hurdat_atl AL151936 23.3000 -67.8000 HU 65 1 12 314
1936263N19300 1936 51 NA NA NOT_NAMED 1936-09-20 15:00:00 TS 23.6997 -68.1879 main 494 494 P_____________ AL151936 23.6997 -68.1879 HU 67 1 10 321
1936263N19300 1936 51 NA NA NOT_NAMED 1936-09-20 18:00:00 TS 24.1000 -68.5000 70 hurdat_atl main 526 526 O_____________ hurdat_atl AL151936 24.1000 -68.5000 HU 70 1 10 324
1936263N19300 1936 51 NA NA NOT_NAMED 1936-09-20 21:00:00 TS 24.5000 -68.8226 main 557 553 P_____________ AL151936 24.5000 -68.8226 HU 72 1 10 326
1936263N19300 1936 51 NA NA NOT_NAMED 1936-09-21 00:00:00 TS 24.9000 -69.1000 75 hurdat_atl main 574 574 O_____________ hurdat_atl AL151936 24.9000 -69.1000 HU 75 1 9 331
1936263N19300 1936 51 NA NA NOT_NAMED 1936-09-21 03:00:00 TS 25.2999 -69.3153 main 593 593 P_____________ AL151936 25.2999 -69.3153 HU 77 1 9 336
1936263N19300 1936 51 NA NA NOT_NAMED 1936-09-21 06:00:00 TS 25.7000 -69.5000 80 hurdat_atl main 616 616 O_____________ hurdat_atl AL151936 25.7000 -69.5000 HU 80 1 9 337
1936263N19300 1936 51 NA NA NOT_NAMED 1936-09-21 09:00:00 TS 26.1225 -69.7000 main 642 642 P_____________ AL151936 26.1225 -69.7000 HU 82 1 9 336
1936263N19300 1936 51 NA NA NOT_NAMED 1936-09-21 12:00:00 TS 26.5000 -69.9000 85 hurdat_atl main 670 670 O_____________ hurdat_atl AL151936 26.5000 -69.9000 HU 85 2 7 331
1936263N19300 1936 51 NA NA NOT_NAMED 1936-09-21 15:00:00 TS 26.7725 -70.1002 main 691 687 P_____________ AL151936 26.7725 -70.1002 HU 87 2 6 324
1936263N19300 1936 51 NA NA NOT_NAMED 1936-09-21 18:00:00 TS 27.0000 -70.3000 90 hurdat_atl main 703 703 O_____________ hurdat_atl AL151936 27.0000 -70.3000 HU 90 2 6 322
1936263N19300 1936 51 NA NA NOT_NAMED 1936-09-21 21:00:00 TS 27.2576 -70.5299 main 727 723 P_____________ AL151936 27.2576 -70.5299 HU 90 2 6 324
1936263N19300 1936 51 NA NA NOT_NAMED 1936-09-22 00:00:00 TS 27.5000 -70.7000 90 hurdat_atl main 741 741 O_____________ hurdat_atl AL151936 27.5000 -70.7000 HU 90 2 5 335
1936263N19300 1936 51 NA NA NOT_NAMED 1936-09-22 03:00:00 TS 27.7074 -70.7675 main 759 759 P_____________ AL151936 27.7074 -70.7675 HU 90 2 4 0
1936263N19300 1936 51 NA NA NOT_NAMED 1936-09-22 06:00:00 TS 27.9000 -70.7000 90 hurdat_atl main 783 783 O_____________ hurdat_atl AL151936 27.9000 -70.7000 HU 90 2 4 34
1936263N19300 1936 51 NA NA NOT_NAMED 1936-09-22 09:00:00 TS 28.0776 -70.4874 main 811 811 P_____________ AL151936 28.0776 -70.4874 HU 90 2 6 48
1936263N19300 1936 51 NA NA NOT_NAMED 1936-09-22 12:00:00 TS 28.3000 -70.2000 90 hurdat_atl main 842 842 O_____________ hurdat_atl AL151936 28.3000 -70.2000 HU 90 2 7 40
1936263N19300 1936 51 NA NA NOT_NAMED 1936-09-22 15:00:00 TS 28.6274 -69.9574 main 880 880 P_____________ AL151936 28.6274 -69.9574 HU 90 2 8 32
1936263N19300 1936 51 NA NA NOT_NAMED 1936-09-22 18:00:00 TS 29.0000 -69.7000 90 hurdat_atl main 902 892 O_____________ hurdat_atl AL151936 29.0000 -69.7000 HU 90 2 9 34
1936263N19300 1936 51 NA NA NOT_NAMED 1936-09-22 21:00:00 TS 29.3501 -69.3925 main 891 889 P_____________ AL151936 29.3501 -69.3925 HU 90 2 9 37
1936263N19300 1936 51 NA NA NOT_NAMED 1936-09-23 00:00:00 TS 29.7000 -69.1000 90 hurdat_atl main 889 882 O_____________ hurdat_atl AL151936 29.7000 -69.1000 HU 90 2 8 33
1936263N19300 1936 51 NA NA NOT_NAMED 1936-09-23 03:00:00 TS 30.0499 -68.8773 main 882 868 P_____________ AL151936 30.0499 -68.8773 HU 87 2 8 26
1936263N19300 1936 51 NA NA NOT_NAMED 1936-09-23 06:00:00 TS 30.4000 -68.7000 85 hurdat_atl main 869 862 O_____________ hurdat_atl AL151936 30.4000 -68.7000 HU 85 2 7 25
1936263N19300 1936 51 NA NA NOT_NAMED 1936-09-23 09:00:00 TS 30.7050 -68.5200 main 862 840 P_____________ AL151936 30.7050 -68.5200 HU 85 2 7 20
1936263N19300 1936 51 NA NA NOT_NAMED 1936-09-23 12:00:00 TS 31.1000 -68.4000 85 hurdat_atl main 840 805 O_____________ hurdat_atl AL151936 31.1000 -68.4000 HU 85 2 10 8
1936263N19300 1936 51 NA NA NOT_NAMED 1936-09-23 15:00:00 TS 31.6600 -68.3699 main 798 754 P_____________ AL151936 31.6600 -68.3699 HU 82 1 13 1
1936263N19300 1936 51 NA NA NOT_NAMED 1936-09-23 18:00:00 TS 32.4000 -68.4000 80 hurdat_atl main 754 710 O_____________ hurdat_atl AL151936 32.4000 -68.4000 HU 80 1 16 358
1936263N19300 1936 51 NA NA NOT_NAMED 1936-09-23 21:00:00 TS 33.2975 -68.4279 main 705 660 P_____________ AL151936 33.2975 -68.4279 HU 80 1 19 358
1936263N19300 1936 51 NA NA NOT_NAMED 1936-09-24 00:00:00 TS 34.3000 -68.5000 80 hurdat_atl main 657 626 O_____________ hurdat_atl AL151936 34.3000 -68.5000 HU 80 1 20 355
1936263N19300 1936 51 NA NA NOT_NAMED 1936-09-24 03:00:00 TS 35.3000 -68.6420 main 625 602 P_____________ AL151936 35.3000 -68.6420 HU 77 1 20 353
1936263N19300 1936 51 NA NA NOT_NAMED 1936-09-24 06:00:00 TS 36.3000 -68.8000 75 hurdat_atl main 598 500 O_____________ hurdat_atl AL151936 36.3000 -68.8000 HU 75 1 20 352
1936263N19300 1936 51 NA NA NOT_NAMED 1936-09-24 09:00:00 TS 37.2497 -68.9945 main 500 405 P_____________ AL151936 37.2497 -68.9945 HU 75 1 19 355
1936263N19300 1936 51 NA NA NOT_NAMED 1936-09-24 12:00:00 TS 38.2000 -69.0000 75 983 hurdat_atl main 394 309 O_____________ hurdat_atl AL151936 38.2000 -69.0000 HU 75 983 1 20 8
1936263N19300 1936 51 NA NA NOT_NAMED 1936-09-24 15:00:00 TS 39.1917 -68.6639 main 299 238 P_____________ AL151936 39.1917 -68.6639 HU 72 1 21 21
1936263N19300 1936 51 NA NA NOT_NAMED 1936-09-24 18:00:00 TS 40.2000 -68.0000 70 hurdat_atl main 236 227 O_____________ hurdat_atl AL151936 40.2000 -68.0000 HU 70 1 23 31
1936263N19300 1936 51 NA NA NOT_NAMED 1936-09-24 21:00:00 TS 41.1780 -67.0883 main 247 159 P_____________ AL151936 41.1780 -67.0883 HU 67 1 25 37
1936263N19300 1936 51 NA NA NOT_NAMED 1936-09-25 00:00:00 ET 42.2000 -66.0000 65 hurdat_atl main 146 47 O_____________ hurdat_atl AL151936 42.2000 -66.0000 EX 65 -4 25 37
1936263N19300 1936 51 NA NA NOT_NAMED 1936-09-25 03:00:00 ET 43.2102 -65.0291 main 41 11 P_____________ AL151936 43.2102 -65.0291 EX 62 -4 28 35
1936263N19300 1936 51 NA NA NOT_NAMED 1936-09-25 06:00:00 ET 44.5000 -63.8000 60 hurdat_atl main 0 0 O_____________ hurdat_atl AL151936 44.5000 -63.8000 EX 60 -4 37 35
1936263N19300 1936 51 NA NA NOT_NAMED 1936-09-25 09:00:00 ET 46.2692 -62.0225 main 13 13 P_____________ AL151936 46.2692 -62.0225 EX 57 -4 47 36
1936263N19300 1936 51 NA NA NOT_NAMED 1936-09-25 12:00:00 ET 48.3000 -59.8000 55 hurdat_atl main 53 O_____________ hurdat_atl AL151936 48.3000 -59.8000 EX 55 -4 50 36

IBTrACS Databaseについて

本データベースは、米国NOAAが公開する1842年以降の世界の熱帯低気圧のベストトラックデータアーカイブInternational Best Track Archive for Climate Stewardship (IBTrACS)を、ウェブで閲覧しやすい形式に変換したものです。

最終更新日:2021-12-08